TimeCDT,TemperatureF,Dew PointF,Humidity,Sea Level PressureIn,VisibilityMPH,Wind Direction,Wind SpeedMPH,Gust SpeedMPH,PrecipitationIn,Events,Conditions,WindDirDegrees,DateUTC
12:53 AM,45.0,42.1,90,29.23,10.0,Calm,Calm,-,N/A,,Scattered Clouds,0,2012-10-18 05:53:00
1:53 AM,45.0,43.0,93,29.20,10.0,Calm,Calm,-,N/A,,Mostly Cloudy,0,2012-10-18 06:53:00
2:53 AM,46.9,43.0,86,29.19,10.0,Calm,Calm,-,0.00,Rain,Light Rain,0,2012-10-18 07:53:00
3:53 AM,46.0,44.1,93,29.18,7.0,Calm,Calm,-,0.02,Rain,Light Rain,0,2012-10-18 08:53:00
4:02 AM,46.4,44.6,93,29.17,6.0,Calm,Calm,-,0.01,Rain,Light Rain,0,2012-10-18 09:02:00
4:28 AM,46.4,44.6,93,29.17,4.0,Calm,Calm,-,0.03,Rain,Light Rain,0,2012-10-18 09:28:00
4:43 AM,46.4,44.6,93,29.18,3.0,Calm,Calm,-,0.06,Rain,Rain,0,2012-10-18 09:43:00
4:53 AM,46.0,43.0,89,29.18,5.0,Variable,3.5,-,0.06,Rain,Light Rain,0,2012-10-18 09:53:00
4:55 AM,46.4,42.8,87,29.17,6.0,Variable,4.6,-,0.00,Rain,Light Rain,0,2012-10-18 09:55:00
5:46 AM,44.6,42.8,93,29.16,5.0,Calm,Calm,-,0.06,Rain,Light Rain,0,2012-10-18 10:46:00
5:53 AM,44.1,42.1,93,29.18,5.0,Calm,Calm,-,0.07,Rain,Light Rain,0,2012-10-18 10:53:00
6:53 AM,44.1,42.1,93,29.16,10.0,Calm,Calm,-,0.01,,Overcast,0,2012-10-18 11:53:00
7:53 AM,44.1,42.1,93,29.17,8.0,Calm,Calm,-,N/A,,Overcast,0,2012-10-18 12:53:00
8:27 AM,44.6,42.8,93,29.17,8.0,Variable,3.5,-,N/A,,Overcast,0,2012-10-18 13:27:00
8:53 AM,44.1,42.1,93,29.18,9.0,SW,4.6,-,N/A,,Overcast,230,2012-10-18 13:53:00
9:21 AM,44.6,42.8,93,29.18,10.0,Calm,Calm,-,N/A,,Overcast,0,2012-10-18 14:21:00
9:53 AM,45.0,42.1,90,29.20,10.0,SSW,5.8,-,N/A,,Overcast,200,2012-10-18 14:53:00
10:53 AM,46.0,43.0,89,29.20,10.0,SSW,3.5,-,N/A,,Overcast,200,2012-10-18 15:53:00
11:44 AM,46.4,42.8,87,29.20,10.0,SSW,3.5,-,N/A,,Overcast,200,2012-10-18 16:44:00
11:53 AM,46.9,43.0,86,29.22,10.0,Calm,Calm,-,N/A,,Overcast,0,2012-10-18 16:53:00
12:53 PM,48.0,43.0,83,29.23,10.0,Calm,Calm,-,N/A,,Overcast,0,2012-10-18 17:53:00
1:09 PM,48.2,42.8,82,29.21,10.0,SSE,4.6,-,N/A,,Overcast,160,2012-10-18 18:09:00
1:53 PM,48.0,42.1,80,29.25,10.0,South,5.8,-,N/A,,Overcast,170,2012-10-18 18:53:00
2:53 PM,48.9,41.0,74,29.27,10.0,Calm,Calm,-,N/A,,Overcast,0,2012-10-18 19:53:00
3:53 PM,48.9,44.1,83,29.29,10.0,Calm,Calm,-,0.01,,Overcast,0,2012-10-18 20:53:00
4:53 PM,48.9,43.0,80,29.31,10.0,Calm,Calm,-,N/A,,Overcast,0,2012-10-18 21:53:00
5:11 PM,48.2,44.6,87,29.29,10.0,Calm,Calm,-,N/A,,Overcast,0,2012-10-18 22:11:00
5:53 PM,48.0,44.1,86,29.34,10.0,Calm,Calm,-,N/A,,Overcast,0,2012-10-18 22:53:00
6:53 PM,45.0,43.0,93,29.36,10.0,Calm,Calm,-,0.00,,Overcast,0,2012-10-18 23:53:00
7:53 PM,44.1,42.1,93,29.38,6.0,Calm,Calm,-,N/A,,Overcast,0,2012-10-19 00:53:00
8:53 PM,44.1,43.0,96,29.39,9.0,Calm,Calm,-,N/A,,Overcast,0,2012-10-19 01:53:00
9:53 PM,45.0,43.0,93,29.40,9.0,Calm,Calm,-,0.00,,Overcast,0,2012-10-19 02:53:00
10:24 PM,44.6,42.8,93,29.38,10.0,Calm,Calm,-,0.00,,Overcast,0,2012-10-19 03:24:00
10:53 PM,45.0,43.0,93,29.41,10.0,Calm,Calm,-,0.00,,Overcast,0,2012-10-19 03:53:00
11:53 PM,46.0,43.0,89,29.42,10.0,Calm,Calm,-,0.00,Rain,Light Rain,0,2012-10-19 04:53:00